Time;durP1;ratioP1;P1;durP2;ratioP2;P2;SDS_P1;SDS_P2;PMS_P1;PMS_P2;Temp;Humidity;BMP_temperature;BMP_pressure;BME280_temperature;BME280_humidity;BME280_pressure;Samples;Min_cycle;Max_cycle;Signal;HPM_P1;HPM_P2
2023/08/28 00:00:44;;;;;;;;;;;;;;;10.67;100.00;100587.53;7368715;19;19982;-50
2023/08/28 00:03:14;;;;;;;;;;;;;;;10.65;100.00;100590.06;7391870;19;20315;-52
2023/08/28 00:05:43;;;;;;;;;;;;;;;10.70;100.00;100585.06;7370221;19;19919;-49
2023/08/28 00:08:15;;;;;;;;;;;;;;;10.63;100.00;100588.25;7391777;19;19936;-50
2023/08/28 00:10:45;;;;;;;;;;;;;;;10.64;100.00;100583.16;7368589;19;19918;-47
2023/08/28 00:13:15;;;;;;;;;;;;;;;10.66;100.00;100584.06;7391405;19;19910;-47
2023/08/28 00:15:44;;;;;;;;;;;;;;;10.63;100.00;100586.56;7367095;19;20344;-44
2023/08/28 00:18:13;;;;;;;;;;;;;;;10.63;100.00;100583.97;7391359;19;19949;-47
2023/08/28 00:20:43;;;;;;;;;;;;;;;10.62;100.00;100587.34;7367570;19;19923;-48
2023/08/28 00:23:12;;;;;;;;;;;;;;;10.59;100.00;100587.25;7391290;19;19996;-49
2023/08/28 00:25:44;;;;;;;;;;;;;;;10.56;100.00;100587.09;7367442;19;19986;-49
2023/08/28 00:28:13;;;;;;;;;;;;;;;10.58;100.00;100587.16;7390871;19;19922;-49
2023/08/28 00:30:43;;;;;;;;;;;;;;;10.57;100.00;100594.06;7364878;19;20002;-48
2023/08/28 00:33:12;;;;;;;;;;;;;;;10.58;100.00;100595.81;7390764;19;19990;-51
2023/08/28 00:35:42;;;;;;;;;;;;;;;10.58;100.00;100595.81;7369442;19;20426;-49
2023/08/28 00:38:12;;;;;;;;;;;;;;;10.58;100.00;100600.97;7390540;19;19944;-49
2023/08/28 00:40:41;;;;;;;;;;;;;;;10.63;100.00;100596.88;7368367;19;19918;-49
2023/08/28 00:43:13;;;;;;;;;;;;;;;10.66;100.00;100596.97;7390246;19;20317;-49
2023/08/28 00:45:43;;;;;;;;;;;;;;;10.60;100.00;100596.75;7368912;19;20345;-49
2023/08/28 00:48:12;;;;;;;;;;;;;;;10.63;100.00;100590.81;7390170;19;19922;-52
2023/08/28 00:50:42;;;;;;;;;;;;;;;10.70;100.00;100584.19;7366970;19;19950;-50
2023/08/28 00:53:11;;;;;;;;;;;;;;;10.74;100.00;100573.16;7390094;19;19918;-49
2023/08/28 00:55:41;;;;;;;;;;;;;;;10.69;100.00;100574.69;7367349;19;20285;-47
2023/08/28 00:58:13;;;;;;;;;;;;;;;10.74;100.00;100568.91;7389771;19;19982;-51
2023/08/28 01:00:43;;;;;;;;;;;;;;;10.76;100.00;100566.34;7373273;19;19922;-50
2023/08/28 01:03:12;;;;;;;;;;;;;;;10.71;100.00;100560.16;7397013;19;19921;-51
2023/08/28 01:05:44;;;;;;;;;;;;;;;10.78;100.00;100570.75;7374100;19;19926;-49
2023/08/28 01:08:15;;;;;;;;;;;;;;;10.71;100.00;100575.66;7397679;19;20347;-50
2023/08/28 01:10:46;;;;;;;;;;;;;;;10.72;100.00;100569.66;7373425;19;20348;-51
2023/08/28 01:13:20;;;;;;;;;;;;;;;10.73;100.00;100574.88;7396009;19;20325;-51
2023/08/28 01:15:49;;;;;;;;;;;;;;;10.67;100.00;100572.94;7374742;19;20409;-48
2023/08/28 01:18:18;;;;;;;;;;;;;;;10.63;100.00;100578.81;7396841;19;19921;-50
2023/08/28 01:20:48;;;;;;;;;;;;;;;10.72;100.00;100577.41;7373684;19;20352;-51
2023/08/28 01:23:20;;;;;;;;;;;;;;;10.67;100.00;100580.66;7396655;19;19919;-49
2023/08/28 01:25:52;;;;;;;;;;;;;;;10.65;100.00;100576.28;7373274;19;20493;-46
2023/08/28 01:28:23;;;;;;;;;;;;;;;10.64;100.00;100577.97;7397005;19;19923;-50
2023/08/28 01:30:53;;;;;;;;;;;;;;;10.61;100.00;100588.16;7374120;19;19925;-49
2023/08/28 01:33:22;;;;;;;;;;;;;;;10.62;100.00;100592.50;7398723;19;19925;-54
2023/08/28 01:35:54;;;;;;;;;;;;;;;10.57;100.00;100591.47;7367269;19;19914;-51
2023/08/28 01:38:26;;;;;;;;;;;;;;;10.59;100.00;100602.72;7399026;19;19918;-50
2023/08/28 01:41:00;;;;;;;;;;;;;;;10.64;100.00;100592.56;7373631;19;19915;-49
2023/08/28 01:43:30;;;;;;;;;;;;;;;10.65;100.00;100600.38;7398407;19;19929;-52
2023/08/28 01:46:00;;;;;;;;;;;;;;;10.71;100.00;100594.56;7372486;19;19915;-52
2023/08/28 01:48:34;;;;;;;;;;;;;;;10.72;100.00;100583.41;7395992;19;19936;-50
2023/08/28 01:51:03;;;;;;;;;;;;;;;10.76;100.00;100569.81;7371380;19;19981;-51
2023/08/28 01:53:33;;;;;;;;;;;;;;;10.82;100.00;100571.75;7396100;19;19922;-49
2023/08/28 01:56:19;;;;;;;;;;;;;;;10.86;100.00;100557.28;7371973;19;19999;-47
2023/08/28 01:58:49;;;;;;;;;;;;;;;10.87;100.00;100552.16;7397018;19;19930;-50
2023/08/28 02:01:18;;;;;;;;;;;;;;;10.94;100.00;100555.84;7370985;19;19985;-49
2023/08/28 02:03:48;;;;;;;;;;;;;;;10.94;100.00;100559.28;7398316;19;19932;-50
2023/08/28 02:06:17;;;;;;;;;;;;;;;11.00;100.00;100565.50;7372800;19;19982;-51
2023/08/28 02:08:47;;;;;;;;;;;;;;;11.01;100.00;100578.50;7396727;19;19918;-46
2023/08/28 02:11:19;;;;;;;;;;;;;;;11.08;100.00;100583.06;7368832;19;20475;-47
2023/08/28 02:13:48;;;;;;;;;;;;;;;11.13;100.00;100584.94;7396668;19;19923;-48
2023/08/28 02:16:18;;;;;;;;;;;;;;;11.14;100.00;100589.28;7371893;19;19923;-50
2023/08/28 02:18:48;;;;;;;;;;;;;;;11.17;100.00;100584.19;7396323;19;19943;-48
2023/08/28 02:21:17;;;;;;;;;;;;;;;11.19;100.00;100585.16;7370894;19;19918;-46
2023/08/28 02:23:47;;;;;;;;;;;;;;;11.25;100.00;100576.75;7395312;19;19986;-46
2023/08/28 02:26:19;;;;;;;;;;;;;;;11.29;100.00;100566.56;7372025;19;20025;-46
2023/08/28 02:28:48;;;;;;;;;;;;;;;11.32;100.00;100571.88;7396540;19;20276;-46
2023/08/28 02:31:17;;;;;;;;;;;;;;;11.34;100.00;100570.19;7370770;19;19941;-49
2023/08/28 02:33:47;;;;;;;;;;;;;;;11.39;100.00;100569.50;7396226;19;19914;-45
2023/08/28 02:36:16;;;;;;;;;;;;;;;11.38;100.00;100576.34;7371942;19;20438;-47
2023/08/28 02:38:45;;;;;;;;;;;;;;;11.34;100.00;100577.94;7395865;19;19926;-48
2023/08/28 02:41:15;;;;;;;;;;;;;;;11.39;100.00;100579.81;7370748;19;19911;-48
2023/08/28 02:43:47;;;;;;;;;;;;;;;11.38;100.00;100568.59;7395639;19;19911;-47
2023/08/28 02:46:17;;;;;;;;;;;;;;;11.43;100.00;100558.47;7370688;19;19914;-50
2023/08/28 02:48:46;;;;;;;;;;;;;;;11.47;100.00;100550.88;7394913;19;19923;-49
2023/08/28 02:51:15;;;;;;;;;;;;;;;11.53;100.00;100549.31;7370802;19;19998;-51
2023/08/28 02:53:45;;;;;;;;;;;;;;;11.48;100.00;100550.03;7394926;19;19974;-50
2023/08/28 02:56:23;;;;;;;;;;;;;;;11.55;100.00;100560.56;7370341;19;20363;-51
2023/08/28 02:58:56;;;;;;;;;;;;;;;11.60;100.00;100564.22;7396995;19;19935;-48
2023/08/28 03:01:25;;;;;;;;;;;;;;;11.58;100.00;100571.91;7370234;19;19938;-50
2023/08/28 03:03:55;;;;;;;;;;;;;;;11.54;100.00;100569.16;7395981;19;19921;-51
2023/08/28 03:06:24;;;;;;;;;;;;;;;11.56;100.00;100572.66;7370258;19;19974;-50
2023/08/28 03:08:54;;;;;;;;;;;;;;;11.58;100.00;100582.22;7396971;19;19919;-49
2023/08/28 03:11:24;;;;;;;;;;;;;;;11.60;100.00;100571.97;7369860;19;19970;-52
2023/08/28 03:13:55;;;;;;;;;;;;;;;11.64;100.00;100571.22;7395691;19;19919;-49
2023/08/28 03:16:25;;;;;;;;;;;;;;;11.57;100.00;100566.66;7369890;19;19918;-49
2023/08/28 03:18:54;;;;;;;;;;;;;;;11.65;100.00;100575.59;7396841;19;19946;-49
2023/08/28 03:21:24;;;;;;;;;;;;;;;11.65;100.00;100570.41;7368445;19;19907;-53
2023/08/28 03:23:53;;;;;;;;;;;;;;;11.66;100.00;100579.91;7395985;19;19921;-45
2023/08/28 03:26:25;;;;;;;;;;;;;;;11.69;100.00;100586.91;7369209;19;19990;-47
2023/08/28 03:28:57;;;;;;;;;;;;;;;11.72;100.00;100590.47;7394457;19;19987;-53
2023/08/28 03:31:27;;;;;;;;;;;;;;;11.73;100.00;100587.06;7368798;19;19922;-50
2023/08/28 03:33:59;;;;;;;;;;;;;;;11.80;100.00;100589.84;7396311;19;19951;-51
2023/08/28 03:36:28;;;;;;;;;;;;;;;11.80;100.00;100587.25;7368580;19;20355;-50
2023/08/28 03:38:58;;;;;;;;;;;;;;;11.84;100.00;100594.31;7392767;19;19978;-48
2023/08/28 03:41:27;;;;;;;;;;;;;;;11.86;100.00;100582.31;7368940;19;19918;-50
2023/08/28 03:43:59;;;;;;;;;;;;;;;11.93;100.00;100601.47;7393988;19;19919;-49
2023/08/28 03:46:29;;;;;;;;;;;;;;;11.90;100.00;100612.63;7369089;19;19922;-53
2023/08/28 03:48:58;;;;;;;;;;;;;;;11.88;100.00;100616.81;7394315;19;19947;-49
2023/08/28 03:51:27;;;;;;;;;;;;;;;11.91;100.00;100623.81;7368227;19;20315;-50
2023/08/28 03:53:57;;;;;;;;;;;;;;;11.94;100.00;100629.97;7395706;19;19929;-52
2023/08/28 03:56:26;;;;;;;;;;;;;;;11.89;100.00;100628.91;7368740;19;19914;-47
2023/08/28 03:58:55;;;;;;;;;;;;;;;11.83;100.00;100628.72;7394278;19;19943;-51
2023/08/28 04:01:28;;;;;;;;;;;;;;;11.83;100.00;100637.34;7368027;19;20285;-50
2023/08/28 04:03:58;;;;;;;;;;;;;;;11.79;100.00;100639.78;7392850;19;19925;-48
2023/08/28 04:06:28;;;;;;;;;;;;;;;11.83;100.00;100639.06;7368798;19;20352;-50
2023/08/28 04:08:57;;;;;;;;;;;;;;;11.79;100.00;100642.38;7395372;19;19938;-52
2023/08/28 04:11:26;;;;;;;;;;;;;;;11.75;100.00;100647.41;7367353;19;19982;-48
2023/08/28 04:13:56;;;;;;;;;;;;;;;11.71;100.00;100658.50;7393137;19;19925;-53
2023/08/28 04:16:28;;;;;;;;;;;;;;;11.74;100.00;100661.19;7368823;19;20340;-48
2023/08/28 04:18:57;;;;;;;;;;;;;;;11.74;100.00;100650.84;7393391;19;19918;-52
2023/08/28 04:21:27;;;;;;;;;;;;;;;11.74;100.00;100644.78;7367361;19;20305;-52
2023/08/28 04:23:56;;;;;;;;;;;;;;;11.77;100.00;100654.34;7393322;19;19987;-50
2023/08/28 04:26:25;;;;;;;;;;;;;;;11.77;100.00;100662.09;7367794;19;20323;-50
2023/08/28 04:28:55;;;;;;;;;;;;;;;11.75;100.00;100662.94;7393672;19;19917;-53
2023/08/28 04:31:24;;;;;;;;;;;;;;;11.75;100.00;100673.25;7366394;19;19919;-51
2023/08/28 04:33:56;;;;;;;;;;;;;;;11.74;100.00;100679.25;7396778;19;19947;-48
2023/08/28 04:36:26;;;;;;;;;;;;;;;11.80;100.00;100680.31;7374854;19;19919;-51
2023/08/28 04:38:55;;;;;;;;;;;;;;;11.78;100.00;100677.66;7398486;19;19984;-51
2023/08/28 04:41:24;;;;;;;;;;;;;;;11.71;100.00;100679.16;7373809;19;19935;-51
2023/08/28 04:43:54;;;;;;;;;;;;;;;11.68;100.00;100685.91;7399262;19;19918;-48
2023/08/28 04:46:23;;;;;;;;;;;;;;;11.69;100.00;100698.88;7372469;19;19910;-49
2023/08/28 04:48:53;;;;;;;;;;;;;;;11.67;100.00;100685.03;7398176;19;19930;-50
2023/08/28 04:51:25;;;;;;;;;;;;;;;11.69;100.00;100678.22;7373430;19;19923;-52
2023/08/28 04:53:55;;;;;;;;;;;;;;;11.70;100.00;100685.13;7398363;19;19922;-50
2023/08/28 04:56:24;;;;;;;;;;;;;;;11.63;100.00;100678.00;7373705;19;19982;-48
2023/08/28 04:58:53;;;;;;;;;;;;;;;11.66;100.00;100678.13;7398722;19;19918;-50
2023/08/28 05:01:23;;;;;;;;;;;;;;;11.63;100.00;100678.00;7373656;19;19944;-53
2023/08/28 05:03:53;;;;;;;;;;;;;;;11.49;100.00;100664.59;7398932;19;21847;-50
2023/08/28 05:06:25;;;;;;;;;;;;;;;11.51;100.00;100670.69;7372031;19;19922;-52
2023/08/28 05:08:54;;;;;;;;;;;;;;;11.58;100.00;100674.34;7398732;19;19918;-48
2023/08/28 05:11:24;;;;;;;;;;;;;;;11.56;100.00;100682.06;7373780;19;19944;-51
2023/08/28 05:13:53;;;;;;;;;;;;;;;11.52;100.00;100682.78;7398076;19;19936;-52
2023/08/28 05:16:23;;;;;;;;;;;;;;;11.54;100.00;100688.88;7373703;19;19943;-50
2023/08/28 05:18:52;;;;;;;;;;;;;;;11.70;100.00;100677.38;7398072;19;19930;-47
2023/08/28 05:21:22;;;;;;;;;;;;;;;11.61;100.00;100670.22;7373039;19;20595;-52
2023/08/28 05:23:53;;;;;;;;;;;;;;;11.64;100.00;100659.06;7399971;19;20344;-52
2023/08/28 05:26:23;;;;;;;;;;;;;;;11.62;100.00;100647.81;7372586;19;19918;-52
2023/08/28 05:28:52;;;;;;;;;;;;;;;11.62;100.00;100642.66;7400495;19;19932;-50
2023/08/28 05:31:22;;;;;;;;;;;;;;;11.60;100.00;100645.16;7372696;19;20294;-51
2023/08/28 05:33:51;;;;;;;;;;;;;;;11.58;100.00;100639.06;7397785;19;19919;-51
2023/08/28 05:36:21;;;;;;;;;;;;;;;11.63;100.00;100636.66;7372625;19;20043;-51
2023/08/28 05:38:50;;;;;;;;;;;;;;;11.65;100.00;100635.03;7397781;19;19923;-48
2023/08/28 05:41:22;;;;;;;;;;;;;;;11.64;100.00;100641.00;7371168;19;19922;-52
2023/08/28 05:43:51;;;;;;;;;;;;;;;11.73;100.00;100630.09;7397624;19;19930;-49
2023/08/28 05:46:21;;;;;;;;;;;;;;;11.71;100.00;100629.19;7371798;19;19922;-51
2023/08/28 05:48:50;;;;;;;;;;;;;;;11.77;100.00;100618.16;7396729;19;19974;-51
2023/08/28 05:51:19;;;;;;;;;;;;;;;11.77;100.00;100610.41;7369872;19;19994;-49
2023/08/28 05:53:49;;;;;;;;;;;;;;;11.81;100.00;100605.41;7397545;19;20302;-47
2023/08/28 05:56:18;;;;;;;;;;;;;;;11.85;100.00;100609.84;7372836;19;20288;-46
2023/08/28 05:58:50;;;;;;;;;;;;;;;11.85;100.00;100606.41;7397389;19;19986;-48
2023/08/28 06:01:19;;;;;;;;;;;;;;;11.94;100.00;100611.88;7370339;19;20365;-46
2023/08/28 06:03:51;;;;;;;;;;;;;;;12.01;100.00;100613.81;7399618;19;19945;-48
2023/08/28 06:06:20;;;;;;;;;;;;;;;12.07;100.00;100609.72;7371570;19;19926;-50
2023/08/28 06:08:50;;;;;;;;;;;;;;;12.14;100.00;100604.81;7396104;19;19974;-48
2023/08/28 06:11:19;;;;;;;;;;;;;;;12.18;100.00;100616.13;7369906;19;19925;-49
2023/08/28 06:13:51;;;;;;;;;;;;;;;12.28;100.00;100613.03;7399149;19;19922;-50
2023/08/28 06:16:21;;;;;;;;;;;;;;;12.28;100.00;100612.16;7371818;19;19929;-49
2023/08/28 06:18:50;;;;;;;;;;;;;;;12.36;100.00;100608.09;7396845;19;19994;-52
2023/08/28 06:21:22;;;;;;;;;;;;;;;12.45;100.00;100611.81;7369697;19;19978;-53
2023/08/28 06:23:51;;;;;;;;;;;;;;;12.52;100.00;100609.44;7398687;19;19959;-50
2023/08/28 06:26:21;;;;;;;;;;;;;;;12.61;100.00;100608.00;7370843;19;19917;-47
2023/08/28 06:28:53;;;;;;;;;;;;;;;12.65;100.00;100617.59;7398354;19;20316;-52
2023/08/28 06:31:22;;;;;;;;;;;;;;;12.73;100.00;100620.44;7369534;19;19935;-50
2023/08/28 06:33:51;;;;;;;;;;;;;;;12.68;100.00;100638.41;7396643;19;19993;-52
2023/08/28 06:36:21;;;;;;;;;;;;;;;12.80;100.00;100638.78;7371153;19;19915;-48
2023/08/28 06:38:51;;;;;;;;;;;;;;;12.87;100.00;100645.03;7396504;19;19922;-50
2023/08/28 06:41:21;;;;;;;;;;;;;;;12.91;100.00;100649.47;7369763;19;20360;-48
2023/08/28 06:43:53;;;;;;;;;;;;;;;13.00;100.00;100656.66;7396653;19;19931;-49
2023/08/28 06:46:23;;;;;;;;;;;;;;;13.07;100.00;100668.06;7371144;19;19942;-47
2023/08/28 06:48:52;;;;;;;;;;;;;;;13.14;100.00;100676.91;7396912;19;19923;-51
2023/08/28 06:51:22;;;;;;;;;;;;;;;13.26;100.00;100689.31;7369811;19;19922;-49
2023/08/28 06:53:51;;;;;;;;;;;;;;;13.45;100.00;100691.66;7395850;19;20386;-48
2023/08/28 06:56:21;;;;;;;;;;;;;;;13.55;100.00;100698.00;7369870;19;19915;-49
2023/08/28 06:58:53;;;;;;;;;;;;;;;13.71;100.00;100709.69;7396454;19;19955;-50
2023/08/28 07:01:22;;;;;;;;;;;;;;;13.70;100.00;100728.66;7369548;19;19927;-48
2023/08/28 07:03:52;;;;;;;;;;;;;;;13.73;100.00;100746.91;7396096;19;19918;-50
2023/08/28 07:06:21;;;;;;;;;;;;;;;13.78;100.00;100772.94;7369946;19;19952;-49
2023/08/28 07:08:51;;;;;;;;;;;;;;;13.84;100.00;100783.50;7395618;19;19919;-50
2023/08/28 07:11:20;;;;;;;;;;;;;;;13.92;100.00;100796.69;7369111;19;19978;-49
2023/08/28 07:13:49;;;;;;;;;;;;;;;14.00;100.00;100805.56;7395070;19;20345;-51
2023/08/28 07:16:21;;;;;;;;;;;;;;;14.12;100.00;100815.44;7370270;19;19917;-47
2023/08/28 07:18:51;;;;;;;;;;;;;;;14.09;100.00;100836.06;7393971;19;19926;-49
2023/08/28 07:21:20;;;;;;;;;;;;;;;14.22;100.00;100841.63;7367830;19;19954;-51
2023/08/28 07:23:51;;;;;;;;;;;;;;;14.31;100.00;100857.47;7393457;19;19930;-45
2023/08/28 07:26:20;;;;;;;;;;;;;;;14.27;100.00;100860.78;7364290;19;19921;-53
2023/08/28 07:28:50;;;;;;;;;;;;;;;14.48;100.00;100881.28;7392761;19;20670;-48
2023/08/28 07:31:22;;;;;;;;;;;;;;;14.49;100.00;100887.34;7368432;19;19919;-45
2023/08/28 07:33:52;;;;;;;;;;;;;;;14.61;100.00;100900.66;7395075;19;19998;-45
2023/08/28 07:36:24;;;;;;;;;;;;;;;14.56;100.00;100910.91;7369258;19;19978;-47
2023/08/28 07:38:54;;;;;;;;;;;;;;;14.58;100.00;100919.63;7393820;19;19986;-46
2023/08/28 07:41:23;;;;;;;;;;;;;;;14.74;100.00;100922.69;7367933;19;19922;-47
2023/08/28 07:43:52;;;;;;;;;;;;;;;14.75;100.00;100932.22;7393532;19;19939;-44
2023/08/28 07:46:25;;;;;;;;;;;;;;;14.76;100.00;100926.19;7370223;19;19922;-47
2023/08/28 07:48:55;;;;;;;;;;;;;;;14.82;100.00;100933.28;7394447;19;20241;-50
2023/08/28 07:51:24;;;;;;;;;;;;;;;15.01;100.00;100944.19;7367683;19;19917;-47
2023/08/28 07:53:55;;;;;;;;;;;;;;;15.02;100.00;100945.94;7394568;19;19930;-46
2023/08/28 07:56:25;;;;;;;;;;;;;;;15.03;100.00;100958.06;7368988;19;20438;-47
2023/08/28 07:58:54;;;;;;;;;;;;;;;15.22;100.00;100969.81;7390650;19;19954;-50
2023/08/28 08:01:26;;;;;;;;;;;;;;;15.03;100.00;100973.66;7363443;19;19922;-47
2023/08/28 08:03:56;;;;;;;;;;;;;;;14.97;100.00;100988.25;7391201;19;19922;-50
2023/08/28 08:06:25;;;;;;;;;;;;;;;15.15;100.00;100979.19;7366788;19;19915;-51
2023/08/28 08:08:54;;;;;;;;;;;;;;;15.37;100.00;100984.94;7393334;19;19931;-48
2023/08/28 08:11:24;;;;;;;;;;;;;;;15.32;100.00;100991.72;7373173;19;19911;-50
2023/08/28 08:13:53;;;;;;;;;;;;;;;15.60;100.00;101008.94;7398402;19;19934;-48
2023/08/28 08:16:25;;;;;;;;;;;;;;;15.62;100.00;101016.75;7374709;19;19925;-51
2023/08/28 08:18:55;;;;;;;;;;;;;;;15.64;100.00;101020.31;7398868;19;19974;-51
2023/08/28 08:21:24;;;;;;;;;;;;;;;15.60;100.00;101023.66;7372416;19;19907;-49
2023/08/28 08:23:55;;;;;;;;;;;;;;;15.58;100.00;101033.16;7399218;19;19986;-49
2023/08/28 08:26:24;;;;;;;;;;;;;;;15.60;100.00;101031.47;7374126;19;19990;-50
2023/08/28 08:28:54;;;;;;;;;;;;;;;15.77;100.00;101035.38;7399302;19;20355;-47
2023/08/28 08:31:26;;;;;;;;;;;;;;;15.85;100.00;101042.47;7373707;19;19986;-46
2023/08/28 08:33:55;;;;;;;;;;;;;;;15.86;100.00;101050.31;7401490;19;19922;-50
2023/08/28 08:36:24;;;;;;;;;;;;;;;15.80;100.00;101048.44;7374566;19;19979;-48
2023/08/28 08:38:54;;;;;;;;;;;;;;;15.92;100.00;101052.22;7398531;19;19930;-50
2023/08/28 08:41:23;;;;;;;;;;;;;;;15.93;100.00;101053.97;7371456;19;20014;-47
2023/08/28 08:43:53;;;;;;;;;;;;;;;15.82;100.00;101060.59;7398732;19;19919;-48
2023/08/28 08:46:22;;;;;;;;;;;;;;;15.68;100.00;101068.94;7375602;19;19958;-49
2023/08/28 08:48:54;;;;;;;;;;;;;;;15.47;100.00;101062.34;7399077;19;19923;-52
2023/08/28 08:51:23;;;;;;;;;;;;;;;15.48;100.00;101060.63;7371777;19;19929;-48
2023/08/28 08:53:55;;;;;;;;;;;;;;;15.63;100.00;101045.41;7398486;19;20399;-51
2023/08/28 08:56:25;;;;;;;;;;;;;;;15.59;100.00;101051.38;7374034;19;19914;-46
2023/08/28 08:58:54;;;;;;;;;;;;;;;15.86;100.00;101036.41;7399304;19;19943;-51
2023/08/28 09:01:24;;;;;;;;;;;;;;;16.06;100.00;101039.53;7371180;19;19922;-48
2023/08/28 09:03:56;;;;;;;;;;;;;;;16.30;100.00;101052.25;7398191;19;20368;-47
2023/08/28 09:06:25;;;;;;;;;;;;;;;16.31;100.00;101069.63;7374185;19;20132;-50
2023/08/28 09:08:55;;;;;;;;;;;;;;;16.52;100.00;101060.56;7398361;19;19986;-49
2023/08/28 09:11:24;;;;;;;;;;;;;;;16.50;100.00;101072.63;7371962;19;19918;-52
2023/08/28 09:13:54;;;;;;;;;;;;;;;16.85;100.00;101069.03;7401048;19;19929;-50
2023/08/28 09:16:23;;;;;;;;;;;;;;;16.95;100.00;101078.81;7373425;19;20309;-47
2023/08/28 09:18:55;;;;;;;;;;;;;;;16.79;100.00;101093.25;7397788;19;19926;-43
2023/08/28 09:21:45;;;;;;;5.88;2.55;;;;;;;16.47;100.00;101102.09;7401063;19;20405;-49
2023/08/28 09:24:14;;;;;;;22.90;9.20;;;;;;;16.23;100.00;101096.31;7430166;19;20364;-52
2023/08/28 09:26:53;;;;;;;21.10;9.32;;;;;;;16.54;100.00;101103.13;7408356;19;20352;-50
2023/08/28 09:29:26;;;;;;;10.60;4.43;;;;;;;16.71;100.00;101102.59;7428817;19;20964;-51
2023/08/28 09:32:03;;;;;;;8.65;3.40;;;;;;;16.50;100.00;101109.09;7406306;19;20356;-51
2023/08/28 09:34:41;;;;;;;10.95;4.65;;;;;;;16.48;100.00;101116.00;7430641;19;20700;-49
2023/08/28 09:37:14;;;;;;;4.63;2.22;;;;;;;16.41;100.00;101119.31;7403549;19;20943;-49
2023/08/28 09:39:43;;;;;;;5.82;1.70;;;;;;;16.47;100.00;101119.47;7428382;19;20766;-51
2023/08/28 09:42:14;;;;;;;5.10;1.10;;;;;;;16.54;100.00;101123.97;7404782;19;20352;-54
2023/08/28 09:44:51;;;;;;;3.53;1.10;;;;;;;16.54;100.00;101123.97;7429853;19;20352;-51
2023/08/28 09:47:22;;;;;;;7.27;2.20;;;;;;;16.68;100.00;101118.19;7406960;19;20328;-48
2023/08/28 09:49:52;;;;;;;8.30;2.53;;;;;;;16.71;100.00;101131.25;7432004;19;21012;-51
2023/08/28 09:52:29;;;;;;;11.10;4.68;;;;;;;16.76;100.00;101136.59;7407636;19;20701;-50
2023/08/28 09:55:07;;;;;;;5.20;1.40;;;;;;;16.70;100.00;101139.91;7413872;19;20411;-53
2023/08/28 09:57:37;;;;;;;12.75;5.85;;;;;;;16.69;100.00;101135.56;7430261;19;20367;-54
2023/08/28 10:00:08;;;;;;;14.68;7.53;;;;;;;16.78;100.00;101143.59;7404822;19;20960;-52
2023/08/28 10:02:38;;;;;;;6.38;2.30;;;;;;;16.90;100.00;101145.59;7432468;19;20411;-53
2023/08/28 10:05:10;;;;;;;5.60;2.53;;;;;;;17.08;100.00;101145.13;7406484;19;20356;-52
2023/08/28 10:07:43;;;;;;;7.10;3.20;;;;;;;17.11;100.00;101158.22;7433072;19;20459;-52
2023/08/28 10:10:16;;;;;;;7.93;2.85;;;;;;;17.18;100.00;101161.81;7409953;19;20701;-53
2023/08/28 10:12:47;;;;;;;7.00;1.80;;;;;;;17.11;100.00;101171.25;7432847;19;20385;-52
2023/08/28 10:15:19;;;;;;;6.20;2.20;;;;;;;16.92;100.00;101169.06;7406673;19;20328;-51
2023/08/28 10:17:49;;;;;;;5.90;2.50;;;;;;;16.92;100.00;101166.47;7431076;19;20389;-51
2023/08/28 10:20:20;;;;;;;7.22;2.40;;;;;;;16.96;100.00;101156.13;7406656;19;20311;-51
2023/08/28 10:22:52;;;;;;;4.10;1.77;;;;;;;16.73;100.00;101159.09;7429873;19;20355;-55
2023/08/28 10:25:23;;;;;;;4.13;1.58;;;;;;;16.69;100.00;101167.72;7404628;19;20321;-53
2023/08/28 10:27:54;;;;;;;6.07;1.98;;;;;;;16.72;100.00;101161.69;7428786;19;20364;-53
2023/08/28 10:30:24;;;;;;;4.10;1.63;;;;;;;16.86;100.00;101159.38;7402043;19;20365;-51
2023/08/28 10:32:55;;;;;;;4.77;1.50;;;;;;;16.99;100.00;101164.00;7399432;19;20357;-51
2023/08/28 10:35:25;;;;;;;3.88;1.35;;;;;;;17.21;100.00;101167.13;7373683;19;20304;-49
2023/08/28 10:37:57;;;;;;;10.70;5.32;;;;;;;17.15;100.00;101161.78;7398396;19;20709;-51
2023/08/28 10:40:27;;;;;;;9.57;3.58;;;;;;;17.02;100.00;101160.63;7373075;19;20915;-53
2023/08/28 10:42:57;;;;;;;4.25;1.60;;;;;;;17.09;100.00;101157.31;7401848;19;20370;-52
2023/08/28 10:45:27;;;;;;;22.50;13.27;;;;;;;17.08;100.00;101155.53;7378514;19;20297;-50
2023/08/28 10:47:56;;;;;;;11.07;5.93;;;;;;;17.04;100.00;101163.28;7399963;19;20388;-51
2023/08/28 10:50:26;;;;;;;6.10;2.30;;;;;;;17.00;100.00;101157.09;7376555;19;20737;-48
2023/08/28 10:53:03;;;;;;;26.30;14.25;;;;;;;16.87;100.00;101150.75;7400323;19;20385;-52
2023/08/28 10:55:34;;;;;;;8.88;4.60;;;;;;;16.67;100.00;101137.25;7373776;19;20293;-47
2023/08/28 10:58:04;;;;;;;7.75;4.50;;;;;;;16.47;100.00;101119.47;7395803;19;20432;-52
2023/08/28 11:00:37;;;;;;;5.68;2.45;;;;;;;16.29;100.00;101112.97;7369453;19;20345;-50
2023/08/28 11:03:09;;;;;;;6.88;2.15;;;;;;;15.97;100.00;101117.38;7393070;19;20912;-54
2023/08/28 11:05:41;;;;;;;6.47;2.10;;;;;;;15.76;100.00;101072.63;7370607;19;20392;-55
2023/08/28 11:08:14;;;;;;;7.28;2.47;;;;;;;15.59;100.00;101058.31;7393263;19;20352;-51
2023/08/28 11:10:47;;;;;;;8.15;2.90;;;;;;;15.28;100.00;101036.69;7369233;19;20341;-54
2023/08/28 11:13:24;;;;;;;4.72;2.03;;;;;;;15.06;100.00;101028.31;7395716;19;20705;-54
2023/08/28 11:16:04;;;;;;;5.20;2.38;;;;;;;15.15;100.00;101022.47;7371061;19;20311;-51
2023/08/28 11:18:34;;;;;;;6.60;2.65;;;;;;;15.14;100.00;101013.81;7395963;19;20368;-52
2023/08/28 11:21:06;;;;;;;3.85;2.25;;;;;;;15.11;100.00;101013.72;7368338;19;20352;-50
2023/08/28 11:23:42;;;;;;;5.97;1.88;;;;;;;15.07;100.00;101019.69;7395889;19;20353;-55
2023/08/28 11:26:29;;;;;;;5.50;2.30;;;;;;;15.20;100.00;101020.88;7369718;19;20345;-52
2023/08/28 11:28:59;;;;;;;3.83;1.60;;;;;;;15.35;100.00;101010.03;7395978;19;20896;-52
2023/08/28 11:31:33;;;;;;;3.33;1.40;;;;;;;15.49;100.00;101018.19;7369844;19;20362;-56
2023/08/28 11:34:03;;;;;;;3.90;1.20;;;;;;;15.68;100.00;101011.72;7400614;19;20378;-50
2023/08/28 11:36:40;;;;;;;3.78;1.70;;;;;;;15.80;100.00;101006.81;7371948;19;20686;-50
2023/08/28 11:39:22;;;;;;;3.45;1.10;;;;;;;15.98;100.00;101005.53;7394354;19;20915;-48
2023/08/28 11:41:53;;;;;;;6.85;2.97;;;;;;;16.18;100.00;101007.72;7369128;19;20536;-51
2023/08/28 11:44:25;;;;;;;12.07;5.97;;;;;;;16.63;100.00;101007.78;7394241;19;20360;-52
2023/08/28 11:46:57;;;;;;;7.97;4.00;;;;;;;16.93;100.00;101023.19;7370664;19;20770;-52
2023/08/28 11:49:28;;;;;;;5.60;2.90;;;;;;;17.09;100.00;101036.53;7393238;19;20896;-50
2023/08/28 11:51:58;;;;;;;6.05;1.95;;;;;;;17.24;100.00;101067.22;7369035;19;20341;-51
2023/08/28 11:54:34;;;;;;;8.90;4.50;;;;;;;17.41;100.00;101094.50;7396946;19;20352;-44
2023/08/28 11:57:04;;;;;;;5.03;1.60;;;;;;;17.54;100.00;101107.78;7367744;19;20367;-40
2023/08/28 11:59:34;;;;;;;5.13;2.28;;;;;;;17.59;100.00;101116.56;7391615;19;20452;-45
2023/08/28 12:02:04;;;;;;;5.87;2.50;;;;;;;17.65;100.00;101121.88;7367153;19;20361;-46
2023/08/28 12:04:36;;;;;;;6.13;2.58;;;;;;;17.89;100.00;101146.66;7393190;19;20356;-45
2023/08/28 12:07:06;;;;;;;7.15;3.45;;;;;;;18.11;100.00;101174.91;7368149;19;20325;-48
2023/08/28 12:09:38;;;;;;;4.30;1.80;;;;;;;18.10;100.00;101191.44;7394533;19;20405;-44
2023/08/28 12:12:09;;;;;;;4.35;1.80;;;;;;;18.49;100.00;101187.72;7367077;19;20775;-49
2023/08/28 12:14:38;;;;;;;7.80;2.10;;;;;;;18.63;100.00;101198.41;7391551;19;20368;-50
2023/08/28 12:17:08;;;;;;;4.00;1.70;;;;;;;18.61;100.00;101211.44;7368291;19;20412;-49
2023/08/28 12:19:37;;;;;;;3.50;1.30;;;;;;;18.41;100.00;101218.06;7391958;19;20384;-45
2023/08/28 12:22:07;;;;;;;5.60;2.08;;;;;;;18.25;100.00;101204.75;7365475;19;20353;-47
2023/08/28 12:24:44;;;;;;;4.80;1.83;;;;;;;18.15;100.00;101211.53;7383632;19;20353;-41